DAUG

Noumérat - Moufdi Zakaria Airport

Ghardaïa, Algeria
METAR DAUG 230100Z 35011KT CAVOK 21/07 Q1020
Observed Flight Rules
Oct-23 @ 01:00 UTC (21 minutes ago) Visual Flight Rules
Wind Visibility Clouds
350° at 11 knots 10,000+ meters
  • Clear skies
Temperatures Readings
Current 21°C / 70°F
Dewpoint 7°C / 45°F
Humidity 40%
Altimeter 30.12" Hg
Pressure 1020 hPa
Elevation 450
METAR DAUG 230100Z 35011KT CAVOK 21/07 Q1020
Observed Flight Rules
Oct-23 @ 01:00 UTC
(21 minutes ago)
VFR
Wind Visibility
350° at 11 knots 10,000+ meters
Clouds
  • Clear skies
Temperature Dewpoint
21°C / 70°F 7°C / 45°F
Humidity Altimeter Pressure
40% 30.12" Hg 1020 hPa